sensor_id;sensor_type;location;lat;lon;timestamp;temperature;humidity
6379;DHT22;3222;48.858;10.128;2023-09-08T00:00:56;20.80;99.90
6379;DHT22;3222;48.858;10.128;2023-09-08T00:03:22;20.80;99.90
6379;DHT22;3222;48.858;10.128;2023-09-08T00:05:47;20.80;99.90
6379;DHT22;3222;48.858;10.128;2023-09-08T00:08:13;20.70;99.90
6379;DHT22;3222;48.858;10.128;2023-09-08T00:10:39;20.80;99.90
6379;DHT22;3222;48.858;10.128;2023-09-08T00:13:04;20.80;99.90
6379;DHT22;3222;48.858;10.128;2023-09-08T00:15:32;20.80;99.90
6379;DHT22;3222;48.858;10.128;2023-09-08T00:17:58;20.80;99.90
6379;DHT22;3222;48.858;10.128;2023-09-08T00:20:24;20.70;99.90
6379;DHT22;3222;48.858;10.128;2023-09-08T00:22:50;20.80;99.90
6379;DHT22;3222;48.858;10.128;2023-09-08T00:25:16;20.80;99.90
6379;DHT22;3222;48.858;10.128;2023-09-08T00:27:41;20.70;99.90
6379;DHT22;3222;48.858;10.128;2023-09-08T00:30:07;20.70;99.90
6379;DHT22;3222;48.858;10.128;2023-09-08T00:32:33;20.70;99.90
6379;DHT22;3222;48.858;10.128;2023-09-08T00:34:59;20.60;99.90
6379;DHT22;3222;48.858;10.128;2023-09-08T00:37:25;20.60;99.90
6379;DHT22;3222;48.858;10.128;2023-09-08T00:39:50;20.60;99.90
6379;DHT22;3222;48.858;10.128;2023-09-08T00:42:16;20.50;99.90
6379;DHT22;3222;48.858;10.128;2023-09-08T00:44:42;20.40;99.90
6379;DHT22;3222;48.858;10.128;2023-09-08T00:47:07;20.40;99.90
6379;DHT22;3222;48.858;10.128;2023-09-08T00:49:33;20.40;99.90
6379;DHT22;3222;48.858;10.128;2023-09-08T00:51:59;20.30;99.90
6379;DHT22;3222;48.858;10.128;2023-09-08T00:54:27;20.50;99.90
6379;DHT22;3222;48.858;10.128;2023-09-08T00:56:55;20.50;99.90
6379;DHT22;3222;48.858;10.128;2023-09-08T00:59:22;20.50;99.90
6379;DHT22;3222;48.858;10.128;2023-09-08T01:01:48;20.50;99.90
6379;DHT22;3222;48.858;10.128;2023-09-08T01:04:13;20.50;99.90
6379;DHT22;3222;48.858;10.128;2023-09-08T01:06:39;20.50;99.90
6379;DHT22;3222;48.858;10.128;2023-09-08T01:09:05;20.50;99.90
6379;DHT22;3222;48.858;10.128;2023-09-08T01:11:31;20.40;99.90
6379;DHT22;3222;48.858;10.128;2023-09-08T01:13:57;20.30;99.90
6379;DHT22;3222;48.858;10.128;2023-09-08T01:16:23;20.30;99.90
6379;DHT22;3222;48.858;10.128;2023-09-08T01:18:49;20.30;99.90
6379;DHT22;3222;48.858;10.128;2023-09-08T01:27:01;20.20;99.90
6379;DHT22;3222;48.858;10.128;2023-09-08T01:29:27;20.30;99.90
6379;DHT22;3222;48.858;10.128;2023-09-08T01:31:55;20.30;99.90
6379;DHT22;3222;48.858;10.128;2023-09-08T01:34:21;20.30;99.90
6379;DHT22;3222;48.858;10.128;2023-09-08T01:36:46;20.30;99.90
6379;DHT22;3222;48.858;10.128;2023-09-08T01:39:12;20.30;99.90
6379;DHT22;3222;48.858;10.128;2023-09-08T01:41:38;20.30;99.90
6379;DHT22;3222;48.858;10.128;2023-09-08T01:44:03;20.30;99.90
6379;DHT22;3222;48.858;10.128;2023-09-08T01:46:34;20.30;99.90
6379;DHT22;3222;48.858;10.128;2023-09-08T01:48:59;20.30;99.90
6379;DHT22;3222;48.858;10.128;2023-09-08T01:51:25;20.30;99.90
6379;DHT22;3222;48.858;10.128;2023-09-08T01:53:51;20.20;99.90
6379;DHT22;3222;48.858;10.128;2023-09-08T01:56:16;20.20;99.90
6379;DHT22;3222;48.858;10.128;2023-09-08T01:58:42;20.10;99.90
6379;DHT22;3222;48.858;10.128;2023-09-08T02:01:07;20.20;99.90
6379;DHT22;3222;48.858;10.128;2023-09-08T02:03:34;20.10;99.90
6379;DHT22;3222;48.858;10.128;2023-09-08T02:06:00;20.10;99.90
6379;DHT22;3222;48.858;10.128;2023-09-08T02:08:26;20.10;99.90
6379;DHT22;3222;48.858;10.128;2023-09-08T02:10:51;20.10;99.90
6379;DHT22;3222;48.858;10.128;2023-09-08T02:13:17;20.00;99.90
6379;DHT22;3222;48.858;10.128;2023-09-08T02:15:42;20.00;99.90
6379;DHT22;3222;48.858;10.128;2023-09-08T02:18:09;19.90;99.90
6379;DHT22;3222;48.858;10.128;2023-09-08T02:20:34;19.80;99.90
6379;DHT22;3222;48.858;10.128;2023-09-08T02:23:05;19.90;99.90
6379;DHT22;3222;48.858;10.128;2023-09-08T02:25:32;19.90;99.90
6379;DHT22;3222;48.858;10.128;2023-09-08T02:27:58;19.80;99.90
6379;DHT22;3222;48.858;10.128;2023-09-08T02:30:24;19.80;99.90
6379;DHT22;3222;48.858;10.128;2023-09-08T02:32:50;19.70;99.90
6379;DHT22;3222;48.858;10.128;2023-09-08T02:35:17;19.70;99.90
6379;DHT22;3222;48.858;10.128;2023-09-08T02:37:43;19.70;99.90
6379;DHT22;3222;48.858;10.128;2023-09-08T02:40:08;19.60;99.90
6379;DHT22;3222;48.858;10.128;2023-09-08T02:42:36;19.60;99.90
6379;DHT22;3222;48.858;10.128;2023-09-08T02:45:01;19.60;99.90
6379;DHT22;3222;48.858;10.128;2023-09-08T02:47:28;19.70;99.90
6379;DHT22;3222;48.858;10.128;2023-09-08T02:49:54;19.70;99.90
6379;DHT22;3222;48.858;10.128;2023-09-08T02:52:19;19.70;99.90
6379;DHT22;3222;48.858;10.128;2023-09-08T02:54:45;19.70;99.90
6379;DHT22;3222;48.858;10.128;2023-09-08T02:57:11;19.80;99.90
6379;DHT22;3222;48.858;10.128;2023-09-08T02:59:36;19.80;99.90
6379;DHT22;3222;48.858;10.128;2023-09-08T03:02:02;19.70;99.90
6379;DHT22;3222;48.858;10.128;2023-09-08T03:04:28;19.70;99.90
6379;DHT22;3222;48.858;10.128;2023-09-08T03:06:54;19.70;99.90
6379;DHT22;3222;48.858;10.128;2023-09-08T03:09:20;19.60;99.90
6379;DHT22;3222;48.858;10.128;2023-09-08T03:11:46;19.60;99.90
6379;DHT22;3222;48.858;10.128;2023-09-08T03:14:12;19.60;99.90
6379;DHT22;3222;48.858;10.128;2023-09-08T03:16:37;19.50;99.90
6379;DHT22;3222;48.858;10.128;2023-09-08T03:19:03;19.50;99.90
6379;DHT22;3222;48.858;10.128;2023-09-08T03:21:28;19.40;99.90
6379;DHT22;3222;48.858;10.128;2023-09-08T03:23:54;19.40;99.90
6379;DHT22;3222;48.858;10.128;2023-09-08T03:26:21;19.40;99.90
6379;DHT22;3222;48.858;10.128;2023-09-08T03:28:46;19.50;99.90
6379;DHT22;3222;48.858;10.128;2023-09-08T03:31:12;19.40;99.90
6379;DHT22;3222;48.858;10.128;2023-09-08T03:33:38;19.50;99.90
6379;DHT22;3222;48.858;10.128;2023-09-08T03:36:06;19.40;99.90
6379;DHT22;3222;48.858;10.128;2023-09-08T03:38:31;19.40;99.90
6379;DHT22;3222;48.858;10.128;2023-09-08T03:40:57;19.40;99.90
6379;DHT22;3222;48.858;10.128;2023-09-08T03:43:24;19.30;99.90
6379;DHT22;3222;48.858;10.128;2023-09-08T03:45:49;19.30;99.90
6379;DHT22;3222;48.858;10.128;2023-09-08T03:48:15;19.40;99.90
6379;DHT22;3222;48.858;10.128;2023-09-08T03:50:41;19.30;99.90
6379;DHT22;3222;48.858;10.128;2023-09-08T03:53:11;19.30;99.90
6379;DHT22;3222;48.858;10.128;2023-09-08T03:55:37;19.30;99.90
6379;DHT22;3222;48.858;10.128;2023-09-08T03:58:03;19.20;99.90
6379;DHT22;3222;48.858;10.128;2023-09-08T04:00:28;19.30;99.90
6379;DHT22;3222;48.858;10.128;2023-09-08T04:02:54;19.20;99.90
6379;DHT22;3222;48.858;10.128;2023-09-08T04:05:20;19.20;99.90
6379;DHT22;3222;48.858;10.128;2023-09-08T04:07:46;19.20;99.90
6379;DHT22;3222;48.858;10.128;2023-09-08T04:10:12;19.10;99.90
6379;DHT22;3222;48.858;10.128;2023-09-08T04:12:39;19.10;99.90
6379;DHT22;3222;48.858;10.128;2023-09-08T04:15:06;19.10;99.90
6379;DHT22;3222;48.858;10.128;2023-09-08T04:17:32;19.00;99.90
6379;DHT22;3222;48.858;10.128;2023-09-08T04:19:58;19.00;99.90
6379;DHT22;3222;48.858;10.128;2023-09-08T04:22:24;19.00;99.90
6379;DHT22;3222;48.858;10.128;2023-09-08T04:24:50;19.00;99.90
6379;DHT22;3222;48.858;10.128;2023-09-08T04:27:15;19.00;99.90
6379;DHT22;3222;48.858;10.128;2023-09-08T04:29:41;18.90;99.90
6379;DHT22;3222;48.858;10.128;2023-09-08T04:32:07;18.90;99.90
6379;DHT22;3222;48.858;10.128;2023-09-08T04:34:41;18.90;99.90
6379;DHT22;3222;48.858;10.128;2023-09-08T04:37:08;18.90;99.90
6379;DHT22;3222;48.858;10.128;2023-09-08T04:39:34;18.80;99.90
6379;DHT22;3222;48.858;10.128;2023-09-08T04:42:01;18.80;99.90
6379;DHT22;3222;48.858;10.128;2023-09-08T04:44:27;18.80;99.90
6379;DHT22;3222;48.858;10.128;2023-09-08T04:46:53;18.70;99.90
6379;DHT22;3222;48.858;10.128;2023-09-08T04:49:19;18.80;99.90
6379;DHT22;3222;48.858;10.128;2023-09-08T04:51:45;18.70;99.90
6379;DHT22;3222;48.858;10.128;2023-09-08T04:54:13;18.80;99.90
6379;DHT22;3222;48.858;10.128;2023-09-08T04:56:39;18.70;99.90
6379;DHT22;3222;48.858;10.128;2023-09-08T04:59:06;18.70;99.90
6379;DHT22;3222;48.858;10.128;2023-09-08T05:01:32;18.70;99.90
6379;DHT22;3222;48.858;10.128;2023-09-08T05:03:59;18.70;99.90
6379;DHT22;3222;48.858;10.128;2023-09-08T05:06:26;18.80;99.90
6379;DHT22;3222;48.858;10.128;2023-09-08T05:08:52;18.80;99.90
6379;DHT22;3222;48.858;10.128;2023-09-08T05:11:18;18.70;99.90
6379;DHT22;3222;48.858;10.128;2023-09-08T05:13:48;18.70;99.90
6379;DHT22;3222;48.858;10.128;2023-09-08T05:16:13;18.70;99.90
6379;DHT22;3222;48.858;10.128;2023-09-08T05:18:44;18.70;99.90
6379;DHT22;3222;48.858;10.128;2023-09-08T05:21:10;18.70;99.90
6379;DHT22;3222;48.858;10.128;2023-09-08T05:23:36;18.70;99.90
6379;DHT22;3222;48.858;10.128;2023-09-08T05:26:02;18.70;99.90
6379;DHT22;3222;48.858;10.128;2023-09-08T05:28:28;18.70;99.90
6379;DHT22;3222;48.858;10.128;2023-09-08T05:30:54;18.60;99.90
6379;DHT22;3222;48.858;10.128;2023-09-08T05:33:20;18.60;99.90
6379;DHT22;3222;48.858;10.128;2023-09-08T05:35:46;18.60;99.90
6379;DHT22;3222;48.858;10.128;2023-09-08T05:38:13;18.60;99.90
6379;DHT22;3222;48.858;10.128;2023-09-08T05:40:39;18.70;99.90
6379;DHT22;3222;48.858;10.128;2023-09-08T05:43:05;18.60;99.90
6379;DHT22;3222;48.858;10.128;2023-09-08T05:45:32;18.50;99.90
6379;DHT22;3222;48.858;10.128;2023-09-08T05:47:57;18.50;99.90
6379;DHT22;3222;48.858;10.128;2023-09-08T05:50:23;18.50;99.90
6379;DHT22;3222;48.858;10.128;2023-09-08T05:52:51;18.60;99.90
6379;DHT22;3222;48.858;10.128;2023-09-08T05:55:17;18.50;99.90
6379;DHT22;3222;48.858;10.128;2023-09-08T05:57:43;18.50;99.90
6379;DHT22;3222;48.858;10.128;2023-09-08T06:00:09;18.50;99.90
6379;DHT22;3222;48.858;10.128;2023-09-08T06:02:44;18.50;99.90
6379;DHT22;3222;48.858;10.128;2023-09-08T06:05:13;18.50;99.90
6379;DHT22;3222;48.858;10.128;2023-09-08T06:07:39;18.60;99.90
6379;DHT22;3222;48.858;10.128;2023-09-08T06:10:07;18.50;99.90
6379;DHT22;3222;48.858;10.128;2023-09-08T06:12:32;18.50;99.90
6379;DHT22;3222;48.858;10.128;2023-09-08T06:14:58;18.40;99.90
6379;DHT22;3222;48.858;10.128;2023-09-08T06:17:24;18.50;99.90
6379;DHT22;3222;48.858;10.128;2023-09-08T06:19:50;18.50;99.90
6379;DHT22;3222;48.858;10.128;2023-09-08T06:22:16;18.50;99.90
6379;DHT22;3222;48.858;10.128;2023-09-08T06:24:42;18.50;99.90
6379;DHT22;3222;48.858;10.128;2023-09-08T06:27:08;18.50;99.90
6379;DHT22;3222;48.858;10.128;2023-09-08T06:29:34;18.50;99.90
6379;DHT22;3222;48.858;10.128;2023-09-08T06:32:00;18.60;99.90
6379;DHT22;3222;48.858;10.128;2023-09-08T06:34:26;18.70;99.90
6379;DHT22;3222;48.858;10.128;2023-09-08T06:36:51;18.60;99.90
6379;DHT22;3222;48.858;10.128;2023-09-08T06:39:17;18.60;99.90
6379;DHT22;3222;48.858;10.128;2023-09-08T06:41:43;18.60;99.90
6379;DHT22;3222;48.858;10.128;2023-09-08T06:44:11;18.60;99.90
6379;DHT22;3222;48.858;10.128;2023-09-08T06:46:38;18.70;99.90
6379;DHT22;3222;48.858;10.128;2023-09-08T06:49:04;18.60;99.90
6379;DHT22;3222;48.858;10.128;2023-09-08T06:51:30;18.70;99.90
6379;DHT22;3222;48.858;10.128;2023-09-08T06:53:56;18.70;99.90
6379;DHT22;3222;48.858;10.128;2023-09-08T06:56:23;18.70;99.90
6379;DHT22;3222;48.858;10.128;2023-09-08T06:58:49;18.80;99.90
6379;DHT22;3222;48.858;10.128;2023-09-08T07:01:15;18.80;99.90
6379;DHT22;3222;48.858;10.128;2023-09-08T07:03:41;18.80;99.90
6379;DHT22;3222;48.858;10.128;2023-09-08T07:06:08;18.90;99.90
6379;DHT22;3222;48.858;10.128;2023-09-08T07:08:34;18.90;99.90
6379;DHT22;3222;48.858;10.128;2023-09-08T07:11:00;18.90;99.90
6379;DHT22;3222;48.858;10.128;2023-09-08T07:13:26;19.00;99.90
6379;DHT22;3222;48.858;10.128;2023-09-08T07:15:52;19.00;99.90
6379;DHT22;3222;48.858;10.128;2023-09-08T07:18:17;19.00;99.90
6379;DHT22;3222;48.858;10.128;2023-09-08T07:20:47;19.10;99.90
6379;DHT22;3222;48.858;10.128;2023-09-08T07:23:17;19.10;99.90
6379;DHT22;3222;48.858;10.128;2023-09-08T07:25:49;19.10;99.90
6379;DHT22;3222;48.858;10.128;2023-09-08T07:28:16;19.20;99.90
6379;DHT22;3222;48.858;10.128;2023-09-08T07:30:42;19.20;99.90
6379;DHT22;3222;48.858;10.128;2023-09-08T07:33:08;19.30;99.90
6379;DHT22;3222;48.858;10.128;2023-09-08T07:35:39;19.30;99.90
6379;DHT22;3222;48.858;10.128;2023-09-08T07:38:05;19.30;99.90
6379;DHT22;3222;48.858;10.128;2023-09-08T07:40:32;19.40;99.90
6379;DHT22;3222;48.858;10.128;2023-09-08T07:42:58;19.40;99.90
6379;DHT22;3222;48.858;10.128;2023-09-08T07:45:24;19.50;99.90
6379;DHT22;3222;48.858;10.128;2023-09-08T07:47:49;19.50;99.90
6379;DHT22;3222;48.858;10.128;2023-09-08T07:50:23;19.60;99.90
6379;DHT22;3222;48.858;10.128;2023-09-08T07:52:50;19.50;99.90
6379;DHT22;3222;48.858;10.128;2023-09-08T07:55:17;19.60;99.90
6379;DHT22;3222;48.858;10.128;2023-09-08T07:57:43;19.70;99.90
6379;DHT22;3222;48.858;10.128;2023-09-08T08:00:09;19.70;99.90
6379;DHT22;3222;48.858;10.128;2023-09-08T08:02:41;19.70;99.90
6379;DHT22;3222;48.858;10.128;2023-09-08T08:05:07;19.80;99.90
6379;DHT22;3222;48.858;10.128;2023-09-08T08:07:33;19.90;99.90
6379;DHT22;3222;48.858;10.128;2023-09-08T08:09:59;19.90;99.90
6379;DHT22;3222;48.858;10.128;2023-09-08T08:12:24;20.00;99.90
6379;DHT22;3222;48.858;10.128;2023-09-08T08:14:50;20.00;99.90
6379;DHT22;3222;48.858;10.128;2023-09-08T08:17:16;20.10;99.90
6379;DHT22;3222;48.858;10.128;2023-09-08T08:19:43;20.20;99.90
6379;DHT22;3222;48.858;10.128;2023-09-08T08:22:08;20.20;99.90
6379;DHT22;3222;48.858;10.128;2023-09-08T08:24:34;20.30;99.90
6379;DHT22;3222;48.858;10.128;2023-09-08T08:27:00;20.40;99.90
6379;DHT22;3222;48.858;10.128;2023-09-08T08:29:27;20.40;99.90
6379;DHT22;3222;48.858;10.128;2023-09-08T08:31:53;20.50;99.90
6379;DHT22;3222;48.858;10.128;2023-09-08T08:34:18;20.50;99.90
6379;DHT22;3222;48.858;10.128;2023-09-08T08:36:44;20.60;99.90
6379;DHT22;3222;48.858;10.128;2023-09-08T08:39:10;20.60;99.90
6379;DHT22;3222;48.858;10.128;2023-09-08T08:41:35;20.60;99.90
6379;DHT22;3222;48.858;10.128;2023-09-08T08:44:06;20.70;99.90
6379;DHT22;3222;48.858;10.128;2023-09-08T08:46:33;20.70;99.90
6379;DHT22;3222;48.858;10.128;2023-09-08T08:49:02;20.60;99.90
6379;DHT22;3222;48.858;10.128;2023-09-08T08:51:30;20.70;99.90
6379;DHT22;3222;48.858;10.128;2023-09-08T08:53:56;20.70;99.90
6379;DHT22;3222;48.858;10.128;2023-09-08T08:56:23;20.80;99.90
6379;DHT22;3222;48.858;10.128;2023-09-08T08:58:49;20.90;99.90
6379;DHT22;3222;48.858;10.128;2023-09-08T09:01:18;21.00;99.90
6379;DHT22;3222;48.858;10.128;2023-09-08T09:03:49;20.90;99.90
6379;DHT22;3222;48.858;10.128;2023-09-08T09:06:16;21.00;99.90
6379;DHT22;3222;48.858;10.128;2023-09-08T09:08:45;21.10;99.90
6379;DHT22;3222;48.858;10.128;2023-09-08T09:11:11;21.10;99.90
6379;DHT22;3222;48.858;10.128;2023-09-08T09:13:37;21.30;99.90
6379;DHT22;3222;48.858;10.128;2023-09-08T09:16:03;21.40;99.90
6379;DHT22;3222;48.858;10.128;2023-09-08T09:18:30;21.50;99.90
6379;DHT22;3222;48.858;10.128;2023-09-08T09:20:59;21.50;99.90
6379;DHT22;3222;48.858;10.128;2023-09-08T09:23:32;21.60;99.90
6379;DHT22;3222;48.858;10.128;2023-09-08T09:25:58;21.70;99.90
6379;DHT22;3222;48.858;10.128;2023-09-08T09:28:25;21.70;99.90
6379;DHT22;3222;48.858;10.128;2023-09-08T09:30:52;21.70;99.90
6379;DHT22;3222;48.858;10.128;2023-09-08T09:33:20;21.90;99.90
6379;DHT22;3222;48.858;10.128;2023-09-08T09:35:51;21.90;99.90
6379;DHT22;3222;48.858;10.128;2023-09-08T09:38:18;22.00;99.90
6379;DHT22;3222;48.858;10.128;2023-09-08T09:40:47;22.10;99.90
6379;DHT22;3222;48.858;10.128;2023-09-08T09:43:14;22.10;99.90
6379;DHT22;3222;48.858;10.128;2023-09-08T09:45:41;22.10;99.90
6379;DHT22;3222;48.858;10.128;2023-09-08T09:48:08;22.10;99.90
6379;DHT22;3222;48.858;10.128;2023-09-08T09:50:36;22.20;99.90
6379;DHT22;3222;48.858;10.128;2023-09-08T09:53:12;22.20;99.90
6379;DHT22;3222;48.858;10.128;2023-09-08T09:55:39;22.30;99.90
6379;DHT22;3222;48.858;10.128;2023-09-08T09:58:05;22.40;99.90
6379;DHT22;3222;48.858;10.128;2023-09-08T10:00:33;22.40;99.90
6379;DHT22;3222;48.858;10.128;2023-09-08T10:02:59;22.20;99.90
6379;DHT22;3222;48.858;10.128;2023-09-08T10:05:25;22.30;99.90
6379;DHT22;3222;48.858;10.128;2023-09-08T10:07:52;22.40;99.90
6379;DHT22;3222;48.858;10.128;2023-09-08T10:10:19;22.40;99.90
6379;DHT22;3222;48.858;10.128;2023-09-08T10:12:46;22.60;99.90
6379;DHT22;3222;48.858;10.128;2023-09-08T10:15:18;22.60;99.90
6379;DHT22;3222;48.858;10.128;2023-09-08T10:17:51;22.70;99.90
6379;DHT22;3222;48.858;10.128;2023-09-08T10:20:18;22.80;99.90
6379;DHT22;3222;48.858;10.128;2023-09-08T10:22:54;22.80;99.90
6379;DHT22;3222;48.858;10.128;2023-09-08T10:25:21;22.80;99.90
6379;DHT22;3222;48.858;10.128;2023-09-08T10:27:50;22.90;99.90
6379;DHT22;3222;48.858;10.128;2023-09-08T10:30:16;22.90;99.90
6379;DHT22;3222;48.858;10.128;2023-09-08T10:32:43;23.00;99.90
6379;DHT22;3222;48.858;10.128;2023-09-08T10:35:09;23.10;99.90
6379;DHT22;3222;48.858;10.128;2023-09-08T10:37:35;23.00;99.90
6379;DHT22;3222;48.858;10.128;2023-09-08T10:40:20;23.00;99.90
6379;DHT22;3222;48.858;10.128;2023-09-08T10:42:46;22.90;99.90
6379;DHT22;3222;48.858;10.128;2023-09-08T10:45:17;22.90;99.90
6379;DHT22;3222;48.858;10.128;2023-09-08T10:50:28;23.10;99.90
6379;DHT22;3222;48.858;10.128;2023-09-08T10:53:10;23.00;99.90
6379;DHT22;3222;48.858;10.128;2023-09-08T10:55:40;23.20;99.90
6379;DHT22;3222;48.858;10.128;2023-09-08T10:58:09;23.20;99.90
6379;DHT22;3222;48.858;10.128;2023-09-08T11:00:51;23.30;99.90
6379;DHT22;3222;48.858;10.128;2023-09-08T11:06:05;23.30;99.90
6379;DHT22;3222;48.858;10.128;2023-09-08T11:08:33;23.50;99.90
6379;DHT22;3222;48.858;10.128;2023-09-08T11:10:59;23.60;99.90
6379;DHT22;3222;48.858;10.128;2023-09-08T11:13:26;23.70;99.90
6379;DHT22;3222;48.858;10.128;2023-09-08T11:15:54;23.70;99.90
6379;DHT22;3222;48.858;10.128;2023-09-08T11:18:30;23.90;99.90
6379;DHT22;3222;48.858;10.128;2023-09-08T11:20:56;24.00;99.90
6379;DHT22;3222;48.858;10.128;2023-09-08T11:23:22;24.20;99.90
6379;DHT22;3222;48.858;10.128;2023-09-08T11:25:50;24.20;99.90
6379;DHT22;3222;48.858;10.128;2023-09-08T11:28:17;24.20;99.90
6379;DHT22;3222;48.858;10.128;2023-09-08T11:30:45;24.20;99.90
6379;DHT22;3222;48.858;10.128;2023-09-08T11:33:15;24.20;99.90
6379;DHT22;3222;48.858;10.128;2023-09-08T11:35:41;24.20;99.90
6379;DHT22;3222;48.858;10.128;2023-09-08T11:38:10;24.20;99.90
6379;DHT22;3222;48.858;10.128;2023-09-08T11:40:36;24.20;99.90
6379;DHT22;3222;48.858;10.128;2023-09-08T11:43:03;24.20;99.90
6379;DHT22;3222;48.858;10.128;2023-09-08T11:45:30;24.20;99.90
6379;DHT22;3222;48.858;10.128;2023-09-08T11:47:57;24.30;99.90
6379;DHT22;3222;48.858;10.128;2023-09-08T11:50:23;24.30;99.90
6379;DHT22;3222;48.858;10.128;2023-09-08T11:52:51;24.30;99.90
6379;DHT22;3222;48.858;10.128;2023-09-08T11:55:18;24.30;99.90
6379;DHT22;3222;48.858;10.128;2023-09-08T11:57:48;24.20;99.90
6379;DHT22;3222;48.858;10.128;2023-09-08T12:00:15;24.20;99.90
6379;DHT22;3222;48.858;10.128;2023-09-08T12:02:43;24.20;99.90
6379;DHT22;3222;48.858;10.128;2023-09-08T12:05:13;24.20;99.90
6379;DHT22;3222;48.858;10.128;2023-09-08T12:07:39;24.20;99.90
6379;DHT22;3222;48.858;10.128;2023-09-08T12:10:11;24.20;99.90
6379;DHT22;3222;48.858;10.128;2023-09-08T12:12:44;24.30;99.90
6379;DHT22;3222;48.858;10.128;2023-09-08T12:15:10;24.30;99.90
6379;DHT22;3222;48.858;10.128;2023-09-08T12:17:49;24.30;99.90
6379;DHT22;3222;48.858;10.128;2023-09-08T12:20:15;24.40;99.90
6379;DHT22;3222;48.858;10.128;2023-09-08T12:22:51;24.50;99.90
6379;DHT22;3222;48.858;10.128;2023-09-08T12:25:17;24.50;99.90
6379;DHT22;3222;48.858;10.128;2023-09-08T12:27:44;24.50;99.90
6379;DHT22;3222;48.858;10.128;2023-09-08T12:30:16;24.60;99.90
6379;DHT22;3222;48.858;10.128;2023-09-08T12:32:44;24.50;99.90
6379;DHT22;3222;48.858;10.128;2023-09-08T12:35:10;24.50;99.90
6379;DHT22;3222;48.858;10.128;2023-09-08T12:37:36;24.60;99.90
6379;DHT22;3222;48.858;10.128;2023-09-08T12:40:04;24.70;99.90
6379;DHT22;3222;48.858;10.128;2023-09-08T12:42:30;24.80;99.90
6379;DHT22;3222;48.858;10.128;2023-09-08T12:44:55;24.80;99.90
6379;DHT22;3222;48.858;10.128;2023-09-08T12:47:21;24.80;99.90
6379;DHT22;3222;48.858;10.128;2023-09-08T12:49:47;24.80;99.90
6379;DHT22;3222;48.858;10.128;2023-09-08T12:52:12;24.90;99.90
6379;DHT22;3222;48.858;10.128;2023-09-08T12:54:38;24.90;99.90
6379;DHT22;3222;48.858;10.128;2023-09-08T12:57:04;24.90;99.90
6379;DHT22;3222;48.858;10.128;2023-09-08T12:59:30;25.00;99.90
6379;DHT22;3222;48.858;10.128;2023-09-08T13:01:55;25.00;99.90
6379;DHT22;3222;48.858;10.128;2023-09-08T13:04:21;25.00;99.90
6379;DHT22;3222;48.858;10.128;2023-09-08T13:06:48;25.00;99.90
6379;DHT22;3222;48.858;10.128;2023-09-08T13:09:15;25.20;99.90
6379;DHT22;3222;48.858;10.128;2023-09-08T13:11:41;25.30;99.90
6379;DHT22;3222;48.858;10.128;2023-09-08T13:14:07;25.30;99.90
6379;DHT22;3222;48.858;10.128;2023-09-08T13:16:33;25.40;99.90
6379;DHT22;3222;48.858;10.128;2023-09-08T13:18:59;25.50;99.90
6379;DHT22;3222;48.858;10.128;2023-09-08T13:21:25;25.60;99.90
6379;DHT22;3222;48.858;10.128;2023-09-08T13:23:50;25.70;99.90
6379;DHT22;3222;48.858;10.128;2023-09-08T13:26:16;25.80;99.90
6379;DHT22;3222;48.858;10.128;2023-09-08T13:28:42;25.70;99.90
6379;DHT22;3222;48.858;10.128;2023-09-08T13:31:07;25.80;99.90
6379;DHT22;3222;48.858;10.128;2023-09-08T13:33:33;26.00;99.90
6379;DHT22;3222;48.858;10.128;2023-09-08T13:35:59;26.10;99.90
6379;DHT22;3222;48.858;10.128;2023-09-08T13:38:24;26.20;99.90
6379;DHT22;3222;48.858;10.128;2023-09-08T13:40:50;26.20;99.90
6379;DHT22;3222;48.858;10.128;2023-09-08T13:43:15;26.30;99.90
6379;DHT22;3222;48.858;10.128;2023-09-08T13:45:41;26.40;99.90
6379;DHT22;3222;48.858;10.128;2023-09-08T13:48:08;26.40;99.90
6379;DHT22;3222;48.858;10.128;2023-09-08T13:50:34;26.50;99.90
6379;DHT22;3222;48.858;10.128;2023-09-08T13:52:59;26.50;99.90
6379;DHT22;3222;48.858;10.128;2023-09-08T13:55:25;26.50;99.90
6379;DHT22;3222;48.858;10.128;2023-09-08T13:57:51;26.50;99.90
6379;DHT22;3222;48.858;10.128;2023-09-08T14:00:19;26.60;99.90
6379;DHT22;3222;48.858;10.128;2023-09-08T14:02:45;26.70;99.90
6379;DHT22;3222;48.858;10.128;2023-09-08T14:05:11;26.70;99.90
6379;DHT22;3222;48.858;10.128;2023-09-08T14:07:36;26.60;99.90
6379;DHT22;3222;48.858;10.128;2023-09-08T14:10:02;26.60;99.90
6379;DHT22;3222;48.858;10.128;2023-09-08T14:12:35;26.50;99.90
6379;DHT22;3222;48.858;10.128;2023-09-08T14:15:01;26.50;99.90
6379;DHT22;3222;48.858;10.128;2023-09-08T14:17:27;26.50;99.90
6379;DHT22;3222;48.858;10.128;2023-09-08T14:19:53;26.50;99.90
6379;DHT22;3222;48.858;10.128;2023-09-08T14:22:18;26.60;99.90
6379;DHT22;3222;48.858;10.128;2023-09-08T14:24:44;26.70;99.90
6379;DHT22;3222;48.858;10.128;2023-09-08T14:27:09;26.80;99.90
6379;DHT22;3222;48.858;10.128;2023-09-08T14:29:35;26.90;99.90
6379;DHT22;3222;48.858;10.128;2023-09-08T14:32:01;27.00;99.90
6379;DHT22;3222;48.858;10.128;2023-09-08T14:34:28;27.00;99.90
6379;DHT22;3222;48.858;10.128;2023-09-08T14:36:53;27.20;99.90
6379;DHT22;3222;48.858;10.128;2023-09-08T14:39:19;27.10;99.90
6379;DHT22;3222;48.858;10.128;2023-09-08T14:41:45;27.20;99.90
6379;DHT22;3222;48.858;10.128;2023-09-08T14:44:11;27.20;99.90
6379;DHT22;3222;48.858;10.128;2023-09-08T14:46:37;27.20;99.90
6379;DHT22;3222;48.858;10.128;2023-09-08T14:49:03;27.30;99.90
6379;DHT22;3222;48.858;10.128;2023-09-08T14:51:29;27.10;99.90
6379;DHT22;3222;48.858;10.128;2023-09-08T14:53:54;26.90;99.90
6379;DHT22;3222;48.858;10.128;2023-09-08T14:56:20;26.80;99.90
6379;DHT22;3222;48.858;10.128;2023-09-08T14:58:45;26.80;99.90
6379;DHT22;3222;48.858;10.128;2023-09-08T15:01:11;26.80;99.90
6379;DHT22;3222;48.858;10.128;2023-09-08T15:03:39;26.80;99.90
6379;DHT22;3222;48.858;10.128;2023-09-08T15:06:05;26.80;99.90
6379;DHT22;3222;48.858;10.128;2023-09-08T15:08:31;26.70;99.90
6379;DHT22;3222;48.858;10.128;2023-09-08T15:10:57;26.70;99.90
6379;DHT22;3222;48.858;10.128;2023-09-08T15:13:23;26.90;99.90
6379;DHT22;3222;48.858;10.128;2023-09-08T15:15:49;27.10;99.90
6379;DHT22;3222;48.858;10.128;2023-09-08T15:18:15;27.00;99.90
6379;DHT22;3222;48.858;10.128;2023-09-08T15:20:50;27.00;99.90
6379;DHT22;3222;48.858;10.128;2023-09-08T15:23:17;27.00;99.90
6379;DHT22;3222;48.858;10.128;2023-09-08T15:25:42;26.90;99.90
6379;DHT22;3222;48.858;10.128;2023-09-08T15:28:15;26.90;99.90
6379;DHT22;3222;48.858;10.128;2023-09-08T15:30:49;27.00;99.90
6379;DHT22;3222;48.858;10.128;2023-09-08T15:33:15;27.10;99.90
6379;DHT22;3222;48.858;10.128;2023-09-08T15:35:42;27.00;99.90
6379;DHT22;3222;48.858;10.128;2023-09-08T15:38:08;26.90;99.90
6379;DHT22;3222;48.858;10.128;2023-09-08T15:40:33;26.80;99.90
6379;DHT22;3222;48.858;10.128;2023-09-08T15:42:59;26.80;99.90
6379;DHT22;3222;48.858;10.128;2023-09-08T15:45:25;26.80;99.90
6379;DHT22;3222;48.858;10.128;2023-09-08T15:47:51;26.70;99.90
6379;DHT22;3222;48.858;10.128;2023-09-08T15:50:17;26.70;99.90
6379;DHT22;3222;48.858;10.128;2023-09-08T15:52:42;26.60;99.90